sensor_id;sensor_type;location;lat;lon;timestamp;P1;durP1;ratioP1;P2;durP2;ratioP2
13279;SDS011;6708;49.814;8.652;2024-02-21T00:00:15;10.57;;;4.47;;
13279;SDS011;6708;49.814;8.652;2024-02-21T00:02:45;12.23;;;3.90;;
13279;SDS011;6708;49.814;8.652;2024-02-21T00:05:13;6.73;;;4.40;;
13279;SDS011;6708;49.814;8.652;2024-02-21T00:07:45;8.50;;;4.10;;
13279;SDS011;6708;49.814;8.652;2024-02-21T00:10:14;9.90;;;4.77;;
13279;SDS011;6708;49.814;8.652;2024-02-21T00:12:43;6.37;;;4.20;;
13279;SDS011;6708;49.814;8.652;2024-02-21T00:15:12;7.03;;;4.77;;
13279;SDS011;6708;49.814;8.652;2024-02-21T00:17:40;8.37;;;4.37;;
13279;SDS011;6708;49.814;8.652;2024-02-21T00:20:09;9.20;;;4.67;;
13279;SDS011;6708;49.814;8.652;2024-02-21T00:22:38;7.27;;;4.73;;
13279;SDS011;6708;49.814;8.652;2024-02-21T00:25:10;10.53;;;4.53;;
13279;SDS011;6708;49.814;8.652;2024-02-21T00:27:38;10.20;;;4.60;;
13279;SDS011;6708;49.814;8.652;2024-02-21T00:30:07;8.57;;;4.50;;
13279;SDS011;6708;49.814;8.652;2024-02-21T00:32:37;7.70;;;4.33;;
13279;SDS011;6708;49.814;8.652;2024-02-21T00:35:05;8.13;;;4.67;;
13279;SDS011;6708;49.814;8.652;2024-02-21T00:37:34;9.83;;;4.67;;
13279;SDS011;6708;49.814;8.652;2024-02-21T00:40:03;6.57;;;4.10;;
13279;SDS011;6708;49.814;8.652;2024-02-21T00:42:35;6.60;;;4.60;;
13279;SDS011;6708;49.814;8.652;2024-02-21T00:45:05;11.70;;;5.23;;
13279;SDS011;6708;49.814;8.652;2024-02-21T00:47:35;6.83;;;4.47;;
13279;SDS011;6708;49.814;8.652;2024-02-21T00:50:03;8.27;;;4.10;;
13279;SDS011;6708;49.814;8.652;2024-02-21T00:52:32;12.97;;;4.60;;
13279;SDS011;6708;49.814;8.652;2024-02-21T00:55:01;13.73;;;5.07;;
13279;SDS011;6708;49.814;8.652;2024-02-21T00:57:30;8.33;;;4.60;;
13279;SDS011;6708;49.814;8.652;2024-02-21T01:00:01;11.50;;;4.47;;
13279;SDS011;6708;49.814;8.652;2024-02-21T01:02:30;12.87;;;4.90;;
13279;SDS011;6708;49.814;8.652;2024-02-21T01:05:00;6.07;;;4.37;;
13279;SDS011;6708;49.814;8.652;2024-02-21T01:07:29;7.00;;;4.30;;
13279;SDS011;6708;49.814;8.652;2024-02-21T01:09:58;11.50;;;4.57;;
13279;SDS011;6708;49.814;8.652;2024-02-21T01:12:27;5.90;;;4.00;;
13279;SDS011;6708;49.814;8.652;2024-02-21T01:14:55;7.73;;;4.77;;
13279;SDS011;6708;49.814;8.652;2024-02-21T01:17:26;9.37;;;4.87;;
13279;SDS011;6708;49.814;8.652;2024-02-21T01:19:55;4.97;;;4.47;;
13279;SDS011;6708;49.814;8.652;2024-02-21T01:22:23;7.40;;;4.27;;
13279;SDS011;6708;49.814;8.652;2024-02-21T01:24:52;11.07;;;4.37;;
13279;SDS011;6708;49.814;8.652;2024-02-21T01:27:21;6.40;;;4.57;;
13279;SDS011;6708;49.814;8.652;2024-02-21T01:29:49;6.80;;;4.67;;
13279;SDS011;6708;49.814;8.652;2024-02-21T01:32:18;8.40;;;4.47;;
13279;SDS011;6708;49.814;8.652;2024-02-21T01:34:49;8.70;;;4.10;;
13279;SDS011;6708;49.814;8.652;2024-02-21T01:37:18;9.80;;;4.77;;
13279;SDS011;6708;49.814;8.652;2024-02-21T01:39:46;8.07;;;4.30;;
13279;SDS011;6708;49.814;8.652;2024-02-21T01:42:16;7.93;;;4.30;;
13279;SDS011;6708;49.814;8.652;2024-02-21T01:44:44;10.33;;;4.30;;
13279;SDS011;6708;49.814;8.652;2024-02-21T01:47:13;8.17;;;4.07;;
13279;SDS011;6708;49.814;8.652;2024-02-21T01:49:41;6.17;;;3.77;;
13279;SDS011;6708;49.814;8.652;2024-02-21T01:52:14;8.93;;;3.93;;
13279;SDS011;6708;49.814;8.652;2024-02-21T01:54:43;11.83;;;4.47;;
13279;SDS011;6708;49.814;8.652;2024-02-21T01:57:12;8.30;;;4.40;;
13279;SDS011;6708;49.814;8.652;2024-02-21T01:59:40;4.97;;;4.17;;
13279;SDS011;6708;49.814;8.652;2024-02-21T02:02:09;6.47;;;4.17;;
13279;SDS011;6708;49.814;8.652;2024-02-21T02:04:37;7.10;;;3.53;;
13279;SDS011;6708;49.814;8.652;2024-02-21T02:07:07;8.03;;;3.77;;
13279;SDS011;6708;49.814;8.652;2024-02-21T02:09:38;11.33;;;4.17;;
13279;SDS011;6708;49.814;8.652;2024-02-21T02:12:07;8.97;;;4.03;;
13279;SDS011;6708;49.814;8.652;2024-02-21T02:14:36;4.37;;;3.40;;
13279;SDS011;6708;49.814;8.652;2024-02-21T02:17:04;6.60;;;3.50;;
13279;SDS011;6708;49.814;8.652;2024-02-21T02:19:34;7.30;;;3.50;;
13279;SDS011;6708;49.814;8.652;2024-02-21T02:22:06;5.63;;;3.77;;
13279;SDS011;6708;49.814;8.652;2024-02-21T02:24:40;9.97;;;4.00;;
13279;SDS011;6708;49.814;8.652;2024-02-21T02:27:09;11.40;;;4.17;;
13279;SDS011;6708;49.814;8.652;2024-02-21T02:29:38;7.60;;;3.77;;
13279;SDS011;6708;49.814;8.652;2024-02-21T02:32:06;7.63;;;3.87;;
13279;SDS011;6708;49.814;8.652;2024-02-21T02:34:35;11.10;;;4.27;;
13279;SDS011;6708;49.814;8.652;2024-02-21T02:37:03;6.47;;;3.43;;
13279;SDS011;6708;49.814;8.652;2024-02-21T02:39:31;7.87;;;4.03;;
13279;SDS011;6708;49.814;8.652;2024-02-21T02:42:03;11.03;;;3.50;;
13279;SDS011;6708;49.814;8.652;2024-02-21T02:44:32;8.00;;;3.80;;
13279;SDS011;6708;49.814;8.652;2024-02-21T02:47:00;5.00;;;3.47;;
13279;SDS011;6708;49.814;8.652;2024-02-21T02:49:29;7.57;;;3.43;;
13279;SDS011;6708;49.814;8.652;2024-02-21T02:51:58;9.07;;;4.50;;
13279;SDS011;6708;49.814;8.652;2024-02-21T02:54:26;6.03;;;3.80;;
13279;SDS011;6708;49.814;8.652;2024-02-21T02:56:55;7.63;;;3.60;;
13279;SDS011;6708;49.814;8.652;2024-02-21T02:59:26;5.53;;;3.40;;
13279;SDS011;6708;49.814;8.652;2024-02-21T03:01:54;7.83;;;3.27;;
13279;SDS011;6708;49.814;8.652;2024-02-21T03:04:23;8.77;;;4.37;;
13279;SDS011;6708;49.814;8.652;2024-02-21T03:06:51;12.60;;;3.97;;
13279;SDS011;6708;49.814;8.652;2024-02-21T03:09:21;9.30;;;4.00;;
13279;SDS011;6708;49.814;8.652;2024-02-21T03:11:49;6.80;;;4.00;;
13279;SDS011;6708;49.814;8.652;2024-02-21T03:14:22;5.87;;;3.73;;
13279;SDS011;6708;49.814;8.652;2024-02-21T03:16:53;6.87;;;3.77;;
13279;SDS011;6708;49.814;8.652;2024-02-21T03:19:22;4.60;;;3.73;;
13279;SDS011;6708;49.814;8.652;2024-02-21T03:21:51;6.83;;;3.80;;
13279;SDS011;6708;49.814;8.652;2024-02-21T03:24:19;5.03;;;3.23;;
13279;SDS011;6708;49.814;8.652;2024-02-21T03:26:48;7.97;;;4.07;;
13279;SDS011;6708;49.814;8.652;2024-02-21T03:29:16;8.70;;;3.90;;
13279;SDS011;6708;49.814;8.652;2024-02-21T03:31:45;9.40;;;3.77;;
13279;SDS011;6708;49.814;8.652;2024-02-21T03:34:16;7.00;;;3.80;;
13279;SDS011;6708;49.814;8.652;2024-02-21T03:36:45;7.20;;;4.27;;
13279;SDS011;6708;49.814;8.652;2024-02-21T03:39:13;7.57;;;4.57;;
13279;SDS011;6708;49.814;8.652;2024-02-21T03:41:42;6.43;;;3.87;;
13279;SDS011;6708;49.814;8.652;2024-02-21T03:44:10;5.37;;;3.20;;
13279;SDS011;6708;49.814;8.652;2024-02-21T03:46:38;7.83;;;3.50;;
13279;SDS011;6708;49.814;8.652;2024-02-21T03:49:07;6.57;;;4.27;;
13279;SDS011;6708;49.814;8.652;2024-02-21T03:51:38;11.23;;;4.00;;
13279;SDS011;6708;49.814;8.652;2024-02-21T03:54:07;7.17;;;3.83;;
13279;SDS011;6708;49.814;8.652;2024-02-21T03:56:36;8.07;;;3.80;;
13279;SDS011;6708;49.814;8.652;2024-02-21T03:59:05;8.23;;;3.90;;
13279;SDS011;6708;49.814;8.652;2024-02-21T04:01:34;9.93;;;3.83;;
13279;SDS011;6708;49.814;8.652;2024-02-21T04:04:05;8.40;;;3.83;;
13279;SDS011;6708;49.814;8.652;2024-02-21T04:06:33;5.00;;;3.87;;
13279;SDS011;6708;49.814;8.652;2024-02-21T04:09:05;7.33;;;3.83;;
13279;SDS011;6708;49.814;8.652;2024-02-21T04:11:33;6.27;;;3.63;;
13279;SDS011;6708;49.814;8.652;2024-02-21T04:14:02;10.07;;;4.33;;
13279;SDS011;6708;49.814;8.652;2024-02-21T04:16:30;5.97;;;4.10;;
13279;SDS011;6708;49.814;8.652;2024-02-21T04:18:59;3.53;;;3.23;;
13279;SDS011;6708;49.814;8.652;2024-02-21T04:21:27;5.37;;;3.50;;
13279;SDS011;6708;49.814;8.652;2024-02-21T04:23:56;7.80;;;3.83;;
13279;SDS011;6708;49.814;8.652;2024-02-21T04:26:27;5.47;;;3.97;;
13279;SDS011;6708;49.814;8.652;2024-02-21T04:28:55;6.80;;;3.67;;
13279;SDS011;6708;49.814;8.652;2024-02-21T04:31:24;4.33;;;3.43;;
13279;SDS011;6708;49.814;8.652;2024-02-21T04:33:52;8.80;;;3.90;;
13279;SDS011;6708;49.814;8.652;2024-02-21T04:36:21;4.87;;;3.37;;
13279;SDS011;6708;49.814;8.652;2024-02-21T04:38:50;8.63;;;3.93;;
13279;SDS011;6708;49.814;8.652;2024-02-21T04:41:18;5.53;;;3.87;;
13279;SDS011;6708;49.814;8.652;2024-02-21T04:43:49;6.80;;;4.07;;
13279;SDS011;6708;49.814;8.652;2024-02-21T04:46:18;5.30;;;3.90;;
13279;SDS011;6708;49.814;8.652;2024-02-21T04:48:46;8.50;;;4.37;;
13279;SDS011;6708;49.814;8.652;2024-02-21T04:51:14;5.23;;;3.73;;
13279;SDS011;6708;49.814;8.652;2024-02-21T04:53:43;4.57;;;4.00;;
13279;SDS011;6708;49.814;8.652;2024-02-21T04:56:12;7.80;;;3.63;;
13279;SDS011;6708;49.814;8.652;2024-02-21T04:58:41;4.50;;;3.87;;
13279;SDS011;6708;49.814;8.652;2024-02-21T05:01:12;8.80;;;4.27;;
13279;SDS011;6708;49.814;8.652;2024-02-21T05:03:40;4.83;;;3.27;;
13279;SDS011;6708;49.814;8.652;2024-02-21T05:06:10;5.40;;;3.63;;
13279;SDS011;6708;49.814;8.652;2024-02-21T05:08:38;6.87;;;4.40;;
13279;SDS011;6708;49.814;8.652;2024-02-21T05:11:06;7.10;;;4.10;;
13279;SDS011;6708;49.814;8.652;2024-02-21T05:13:35;7.30;;;4.20;;
13279;SDS011;6708;49.814;8.652;2024-02-21T05:16:04;4.57;;;3.67;;
13279;SDS011;6708;49.814;8.652;2024-02-21T05:18:36;7.43;;;3.27;;
13279;SDS011;6708;49.814;8.652;2024-02-21T05:21:04;6.97;;;3.37;;
13279;SDS011;6708;49.814;8.652;2024-02-21T05:23:33;4.07;;;3.40;;
13279;SDS011;6708;49.814;8.652;2024-02-21T05:26:01;5.73;;;3.00;;
13279;SDS011;6708;49.814;8.652;2024-02-21T05:28:31;4.40;;;3.10;;
13279;SDS011;6708;49.814;8.652;2024-02-21T05:30:59;6.47;;;3.00;;
13279;SDS011;6708;49.814;8.652;2024-02-21T05:33:28;12.97;;;3.43;;
13279;SDS011;6708;49.814;8.652;2024-02-21T05:36:00;8.10;;;3.20;;
13279;SDS011;6708;49.814;8.652;2024-02-21T05:38:28;8.23;;;3.50;;
13279;SDS011;6708;49.814;8.652;2024-02-21T05:40:56;8.40;;;2.90;;
13279;SDS011;6708;49.814;8.652;2024-02-21T05:43:25;4.07;;;3.03;;
13279;SDS011;6708;49.814;8.652;2024-02-21T05:45:53;5.27;;;2.93;;
13279;SDS011;6708;49.814;8.652;2024-02-21T05:48:22;10.33;;;3.00;;
13279;SDS011;6708;49.814;8.652;2024-02-21T05:50:51;3.93;;;2.37;;
13279;SDS011;6708;49.814;8.652;2024-02-21T05:53:22;8.40;;;2.90;;
13279;SDS011;6708;49.814;8.652;2024-02-21T05:55:52;4.07;;;3.03;;
13279;SDS011;6708;49.814;8.652;2024-02-21T05:58:21;6.77;;;3.23;;
13279;SDS011;6708;49.814;8.652;2024-02-21T06:00:50;5.00;;;3.03;;
13279;SDS011;6708;49.814;8.652;2024-02-21T06:03:19;4.27;;;3.07;;
13279;SDS011;6708;49.814;8.652;2024-02-21T06:05:47;7.60;;;3.73;;
13279;SDS011;6708;49.814;8.652;2024-02-21T06:08:16;10.03;;;3.67;;
13279;SDS011;6708;49.814;8.652;2024-02-21T06:10:48;5.83;;;3.80;;
13279;SDS011;6708;49.814;8.652;2024-02-21T06:13:19;7.10;;;3.50;;
13279;SDS011;6708;49.814;8.652;2024-02-21T06:15:48;4.87;;;2.87;;
13279;SDS011;6708;49.814;8.652;2024-02-21T06:18:16;6.53;;;3.03;;
13279;SDS011;6708;49.814;8.652;2024-02-21T06:20:45;6.70;;;3.70;;
13279;SDS011;6708;49.814;8.652;2024-02-21T06:23:14;5.40;;;3.13;;
13279;SDS011;6708;49.814;8.652;2024-02-21T06:25:44;5.00;;;3.07;;
13279;SDS011;6708;49.814;8.652;2024-02-21T06:30:59;5.53;;;3.50;;
13279;SDS011;6708;49.814;8.652;2024-02-21T06:33:27;10.70;;;3.63;;
13279;SDS011;6708;49.814;8.652;2024-02-21T06:35:55;4.70;;;3.07;;
13279;SDS011;6708;49.814;8.652;2024-02-21T06:38:27;5.63;;;3.07;;
13279;SDS011;6708;49.814;8.652;2024-02-21T06:40:55;6.70;;;3.60;;
13279;SDS011;6708;49.814;8.652;2024-02-21T06:43:25;9.20;;;3.63;;
13279;SDS011;6708;49.814;8.652;2024-02-21T06:45:56;11.27;;;3.80;;
13279;SDS011;6708;49.814;8.652;2024-02-21T06:48:25;7.10;;;3.13;;
13279;SDS011;6708;49.814;8.652;2024-02-21T06:50:53;6.53;;;3.63;;
13279;SDS011;6708;49.814;8.652;2024-02-21T06:53:21;6.37;;;3.57;;
13279;SDS011;6708;49.814;8.652;2024-02-21T06:55:50;3.30;;;3.00;;
13279;SDS011;6708;49.814;8.652;2024-02-21T06:58:18;4.83;;;2.90;;
13279;SDS011;6708;49.814;8.652;2024-02-21T07:00:46;5.80;;;3.20;;
13279;SDS011;6708;49.814;8.652;2024-02-21T07:03:18;5.87;;;3.00;;
13279;SDS011;6708;49.814;8.652;2024-02-21T07:05:46;5.60;;;3.80;;
13279;SDS011;6708;49.814;8.652;2024-02-21T07:08:15;7.93;;;3.60;;
13279;SDS011;6708;49.814;8.652;2024-02-21T07:10:43;8.60;;;3.77;;
13279;SDS011;6708;49.814;8.652;2024-02-21T07:13:11;5.97;;;3.60;;
13279;SDS011;6708;49.814;8.652;2024-02-21T07:15:40;4.13;;;3.30;;
13279;SDS011;6708;49.814;8.652;2024-02-21T07:18:09;12.77;;;3.23;;
13279;SDS011;6708;49.814;8.652;2024-02-21T07:20:40;5.47;;;3.40;;
13279;SDS011;6708;49.814;8.652;2024-02-21T07:23:09;3.37;;;3.07;;
13279;SDS011;6708;49.814;8.652;2024-02-21T07:25:38;5.40;;;3.30;;
13279;SDS011;6708;49.814;8.652;2024-02-21T07:28:07;5.83;;;3.40;;
13279;SDS011;6708;49.814;8.652;2024-02-21T07:30:35;5.63;;;3.53;;
13279;SDS011;6708;49.814;8.652;2024-02-21T07:33:04;5.07;;;3.00;;
13279;SDS011;6708;49.814;8.652;2024-02-21T07:35:32;6.10;;;3.30;;
13279;SDS011;6708;49.814;8.652;2024-02-21T07:38:05;7.10;;;3.20;;
13279;SDS011;6708;49.814;8.652;2024-02-21T07:40:37;3.20;;;2.57;;
13279;SDS011;6708;49.814;8.652;2024-02-21T07:43:06;7.77;;;3.03;;
13279;SDS011;6708;49.814;8.652;2024-02-21T07:45:34;6.73;;;3.17;;
13279;SDS011;6708;49.814;8.652;2024-02-21T07:48:04;6.50;;;3.50;;
13279;SDS011;6708;49.814;8.652;2024-02-21T07:50:33;7.20;;;3.60;;
13279;SDS011;6708;49.814;8.652;2024-02-21T07:53:02;3.73;;;3.20;;
13279;SDS011;6708;49.814;8.652;2024-02-21T07:55:33;7.20;;;3.97;;
13279;SDS011;6708;49.814;8.652;2024-02-21T07:58:02;6.47;;;3.37;;
13279;SDS011;6708;49.814;8.652;2024-02-21T08:00:31;4.60;;;3.27;;
13279;SDS011;6708;49.814;8.652;2024-02-21T08:03:00;10.20;;;3.73;;
13279;SDS011;6708;49.814;8.652;2024-02-21T08:05:28;9.77;;;3.17;;
13279;SDS011;6708;49.814;8.652;2024-02-21T08:07:57;7.97;;;3.40;;
13279;SDS011;6708;49.814;8.652;2024-02-21T08:10:28;4.47;;;2.93;;
13279;SDS011;6708;49.814;8.652;2024-02-21T08:12:56;6.67;;;2.87;;
13279;SDS011;6708;49.814;8.652;2024-02-21T08:15:25;5.40;;;3.50;;
13279;SDS011;6708;49.814;8.652;2024-02-21T08:17:54;4.07;;;2.70;;
13279;SDS011;6708;49.814;8.652;2024-02-21T08:20:26;7.47;;;3.27;;
13279;SDS011;6708;49.814;8.652;2024-02-21T08:22:55;4.97;;;3.33;;
13279;SDS011;6708;49.814;8.652;2024-02-21T08:25:23;7.93;;;3.37;;
13279;SDS011;6708;49.814;8.652;2024-02-21T08:27:55;6.83;;;3.20;;
13279;SDS011;6708;49.814;8.652;2024-02-21T08:30:25;8.13;;;3.77;;
13279;SDS011;6708;49.814;8.652;2024-02-21T08:32:53;4.40;;;2.90;;
13279;SDS011;6708;49.814;8.652;2024-02-21T08:35:22;6.37;;;2.80;;
13279;SDS011;6708;49.814;8.652;2024-02-21T08:37:50;5.80;;;3.50;;
13279;SDS011;6708;49.814;8.652;2024-02-21T08:40:19;5.57;;;3.70;;
13279;SDS011;6708;49.814;8.652;2024-02-21T08:42:47;9.43;;;3.90;;
13279;SDS011;6708;49.814;8.652;2024-02-21T08:45:18;9.47;;;3.30;;
13279;SDS011;6708;49.814;8.652;2024-02-21T08:47:47;4.13;;;2.90;;
13279;SDS011;6708;49.814;8.652;2024-02-21T08:50:15;4.30;;;3.03;;
13279;SDS011;6708;49.814;8.652;2024-02-21T08:52:44;4.30;;;2.80;;
13279;SDS011;6708;49.814;8.652;2024-02-21T08:55:12;6.67;;;2.90;;
13279;SDS011;6708;49.814;8.652;2024-02-21T08:57:40;7.37;;;3.13;;
13279;SDS011;6708;49.814;8.652;2024-02-21T09:00:10;5.90;;;3.33;;
13279;SDS011;6708;49.814;8.652;2024-02-21T09:02:42;6.27;;;3.13;;
13279;SDS011;6708;49.814;8.652;2024-02-21T09:05:11;5.70;;;2.70;;
13279;SDS011;6708;49.814;8.652;2024-02-21T09:07:39;4.80;;;3.17;;
13279;SDS011;6708;49.814;8.652;2024-02-21T09:10:08;6.67;;;3.13;;
13279;SDS011;6708;49.814;8.652;2024-02-21T09:12:37;5.57;;;3.03;;
13279;SDS011;6708;49.814;8.652;2024-02-21T09:15:06;4.33;;;3.27;;
13279;SDS011;6708;49.814;8.652;2024-02-21T09:17:42;6.10;;;3.30;;
13279;SDS011;6708;49.814;8.652;2024-02-21T09:20:10;5.60;;;3.10;;
13279;SDS011;6708;49.814;8.652;2024-02-21T09:22:41;6.90;;;3.90;;
13279;SDS011;6708;49.814;8.652;2024-02-21T09:25:09;5.83;;;3.70;;
13279;SDS011;6708;49.814;8.652;2024-02-21T09:27:38;7.17;;;4.13;;
13279;SDS011;6708;49.814;8.652;2024-02-21T09:30:07;5.73;;;3.57;;
13279;SDS011;6708;49.814;8.652;2024-02-21T09:32:36;6.97;;;3.37;;
13279;SDS011;6708;49.814;8.652;2024-02-21T09:35:07;4.73;;;3.20;;
13279;SDS011;6708;49.814;8.652;2024-02-21T09:37:37;13.80;;;3.87;;
13279;SDS011;6708;49.814;8.652;2024-02-21T09:40:06;5.57;;;3.10;;
13279;SDS011;6708;49.814;8.652;2024-02-21T09:42:37;3.07;;;2.80;;
13279;SDS011;6708;49.814;8.652;2024-02-21T09:45:07;6.50;;;3.20;;
13279;SDS011;6708;49.814;8.652;2024-02-21T09:47:40;6.63;;;3.10;;
13279;SDS011;6708;49.814;8.652;2024-02-21T09:50:14;6.87;;;3.20;;
13279;SDS011;6708;49.814;8.652;2024-02-21T09:52:44;5.97;;;2.80;;
13279;SDS011;6708;49.814;8.652;2024-02-21T09:55:12;6.73;;;3.03;;
13279;SDS011;6708;49.814;8.652;2024-02-21T09:57:40;8.30;;;3.33;;
13279;SDS011;6708;49.814;8.652;2024-02-21T10:00:09;4.73;;;2.50;;
13279;SDS011;6708;49.814;8.652;2024-02-21T10:02:46;7.70;;;3.10;;
13279;SDS011;6708;49.814;8.652;2024-02-21T10:05:18;5.63;;;3.10;;
13279;SDS011;6708;49.814;8.652;2024-02-21T10:07:46;3.37;;;3.07;;
13279;SDS011;6708;49.814;8.652;2024-02-21T10:10:16;6.50;;;3.03;;
13279;SDS011;6708;49.814;8.652;2024-02-21T10:12:49;10.83;;;3.23;;
13279;SDS011;6708;49.814;8.652;2024-02-21T10:15:20;4.40;;;3.53;;
13279;SDS011;6708;49.814;8.652;2024-02-21T10:17:50;6.87;;;3.73;;
13279;SDS011;6708;49.814;8.652;2024-02-21T10:20:28;4.67;;;4.00;;
13279;SDS011;6708;49.814;8.652;2024-02-21T10:23:02;5.50;;;3.10;;
13279;SDS011;6708;49.814;8.652;2024-02-21T10:25:33;8.50;;;2.97;;
13279;SDS011;6708;49.814;8.652;2024-02-21T10:28:03;4.47;;;2.50;;
13279;SDS011;6708;49.814;8.652;2024-02-21T10:30:32;4.73;;;2.57;;
13279;SDS011;6708;49.814;8.652;2024-02-21T10:33:01;3.77;;;2.80;;
13279;SDS011;6708;49.814;8.652;2024-02-21T10:35:32;3.20;;;2.87;;
13279;SDS011;6708;49.814;8.652;2024-02-21T10:38:01;5.63;;;2.93;;
13279;SDS011;6708;49.814;8.652;2024-02-21T10:40:29;9.63;;;3.00;;
13279;SDS011;6708;49.814;8.652;2024-02-21T10:42:59;9.73;;;3.17;;
13279;SDS011;6708;49.814;8.652;2024-02-21T10:45:29;8.97;;;3.50;;
13279;SDS011;6708;49.814;8.652;2024-02-21T10:48:07;6.80;;;3.43;;
13279;SDS011;6708;49.814;8.652;2024-02-21T10:50:44;4.57;;;2.90;;
13279;SDS011;6708;49.814;8.652;2024-02-21T10:53:20;7.23;;;3.33;;
13279;SDS011;6708;49.814;8.652;2024-02-21T10:55:56;5.57;;;2.90;;
13279;SDS011;6708;49.814;8.652;2024-02-21T10:58:27;10.80;;;3.47;;
13279;SDS011;6708;49.814;8.652;2024-02-21T11:00:56;9.37;;;2.77;;
13279;SDS011;6708;49.814;8.652;2024-02-21T11:03:25;5.13;;;3.03;;
13279;SDS011;6708;49.814;8.652;2024-02-21T11:05:56;3.37;;;2.70;;
13279;SDS011;6708;49.814;8.652;2024-02-21T11:08:24;6.93;;;3.13;;
13279;SDS011;6708;49.814;8.652;2024-02-21T11:10:56;4.50;;;2.87;;
13279;SDS011;6708;49.814;8.652;2024-02-21T11:13:29;3.93;;;2.80;;
13279;SDS011;6708;49.814;8.652;2024-02-21T11:16:08;6.00;;;3.10;;
13279;SDS011;6708;49.814;8.652;2024-02-21T11:18:38;7.80;;;3.13;;
13279;SDS011;6708;49.814;8.652;2024-02-21T11:21:09;6.00;;;2.93;;
13279;SDS011;6708;49.814;8.652;2024-02-21T11:23:37;9.17;;;2.97;;
13279;SDS011;6708;49.814;8.652;2024-02-21T11:26:06;7.80;;;3.53;;
13279;SDS011;6708;49.814;8.652;2024-02-21T11:28:35;8.13;;;3.30;;
13279;SDS011;6708;49.814;8.652;2024-02-21T11:31:06;5.00;;;2.90;;
13279;SDS011;6708;49.814;8.652;2024-02-21T11:33:35;7.73;;;2.93;;
13279;SDS011;6708;49.814;8.652;2024-02-21T11:36:04;5.60;;;3.10;;
13279;SDS011;6708;49.814;8.652;2024-02-21T11:38:35;11.83;;;3.67;;
13279;SDS011;6708;49.814;8.652;2024-02-21T11:41:04;5.90;;;2.87;;
13279;SDS011;6708;49.814;8.652;2024-02-21T11:43:36;3.90;;;2.70;;
13279;SDS011;6708;49.814;8.652;2024-02-21T11:46:04;6.70;;;2.70;;
13279;SDS011;6708;49.814;8.652;2024-02-21T11:48:34;6.03;;;3.00;;
13279;SDS011;6708;49.814;8.652;2024-02-21T11:51:04;3.90;;;2.87;;
13279;SDS011;6708;49.814;8.652;2024-02-21T11:53:32;4.30;;;2.10;;
13279;SDS011;6708;49.814;8.652;2024-02-21T11:56:03;3.33;;;2.33;;
13279;SDS011;6708;49.814;8.652;2024-02-21T11:58:32;13.03;;;3.00;;
13279;SDS011;6708;49.814;8.652;2024-02-21T12:01:01;6.70;;;2.63;;
13279;SDS011;6708;49.814;8.652;2024-02-21T12:03:32;3.73;;;1.93;;
13279;SDS011;6708;49.814;8.652;2024-02-21T12:06:01;2.57;;;2.13;;
13279;SDS011;6708;49.814;8.652;2024-02-21T12:08:40;2.47;;;2.27;;
13279;SDS011;6708;49.814;8.652;2024-02-21T12:11:18;6.60;;;2.90;;
13279;SDS011;6708;49.814;8.652;2024-02-21T12:13:47;4.30;;;2.30;;
13279;SDS011;6708;49.814;8.652;2024-02-21T12:16:15;4.70;;;2.30;;
13279;SDS011;6708;49.814;8.652;2024-02-21T12:18:46;4.20;;;2.37;;
13279;SDS011;6708;49.814;8.652;2024-02-21T12:21:14;7.90;;;2.33;;
13279;SDS011;6708;49.814;8.652;2024-02-21T12:23:44;4.50;;;2.30;;
13279;SDS011;6708;49.814;8.652;2024-02-21T12:26:12;4.80;;;2.73;;
13279;SDS011;6708;49.814;8.652;2024-02-21T12:28:43;3.77;;;2.00;;
13279;SDS011;6708;49.814;8.652;2024-02-21T12:31:12;6.00;;;2.20;;
13279;SDS011;6708;49.814;8.652;2024-02-21T12:33:41;11.63;;;2.77;;
13279;SDS011;6708;49.814;8.652;2024-02-21T12:36:10;6.00;;;2.33;;
13279;SDS011;6708;49.814;8.652;2024-02-21T12:38:38;4.43;;;2.27;;
13279;SDS011;6708;49.814;8.652;2024-02-21T12:41:07;3.57;;;1.67;;
13279;SDS011;6708;49.814;8.652;2024-02-21T12:43:36;6.93;;;2.10;;
13279;SDS011;6708;49.814;8.652;2024-02-21T12:46:07;4.03;;;2.30;;
13279;SDS011;6708;49.814;8.652;2024-02-21T12:48:36;4.33;;;2.10;;
13279;SDS011;6708;49.814;8.652;2024-02-21T12:51:05;5.00;;;2.20;;
13279;SDS011;6708;49.814;8.652;2024-02-21T12:53:33;2.77;;;1.70;;
13279;SDS011;6708;49.814;8.652;2024-02-21T12:56:02;4.87;;;2.07;;
13279;SDS011;6708;49.814;8.652;2024-02-21T12:58:36;3.20;;;2.07;;
13279;SDS011;6708;49.814;8.652;2024-02-21T13:01:07;4.30;;;2.00;;
13279;SDS011;6708;49.814;8.652;2024-02-21T13:03:35;5.83;;;2.03;;
13279;SDS011;6708;49.814;8.652;2024-02-21T13:06:04;4.53;;;2.10;;
13279;SDS011;6708;49.814;8.652;2024-02-21T13:08:35;3.67;;;2.20;;
13279;SDS011;6708;49.814;8.652;2024-02-21T13:11:07;2.90;;;2.20;;
13279;SDS011;6708;49.814;8.652;2024-02-21T13:13:36;5.03;;;2.03;;
13279;SDS011;6708;49.814;8.652;2024-02-21T13:18:51;4.20;;;2.30;;
13279;SDS011;6708;49.814;8.652;2024-02-21T13:21:20;2.60;;;1.60;;
13279;SDS011;6708;49.814;8.652;2024-02-21T13:23:48;3.47;;;2.33;;
13279;SDS011;6708;49.814;8.652;2024-02-21T13:26:17;6.30;;;2.17;;
13279;SDS011;6708;49.814;8.652;2024-02-21T13:28:45;2.27;;;2.07;;
13279;SDS011;6708;49.814;8.652;2024-02-21T13:31:16;5.00;;;2.17;;
13279;SDS011;6708;49.814;8.652;2024-02-21T13:33:47;3.07;;;1.80;;
13279;SDS011;6708;49.814;8.652;2024-02-21T13:36:16;7.60;;;2.37;;
13279;SDS011;6708;49.814;8.652;2024-02-21T13:38:44;3.80;;;1.63;;
13279;SDS011;6708;49.814;8.652;2024-02-21T13:41:13;2.33;;;1.70;;
13279;SDS011;6708;49.814;8.652;2024-02-21T13:43:41;4.63;;;2.13;;
13279;SDS011;6708;49.814;8.652;2024-02-21T13:46:11;4.70;;;1.87;;
13279;SDS011;6708;49.814;8.652;2024-02-21T13:48:40;6.60;;;2.27;;
13279;SDS011;6708;49.814;8.652;2024-02-21T13:51:11;5.83;;;1.87;;
13279;SDS011;6708;49.814;8.652;2024-02-21T13:53:41;4.57;;;2.00;;
13279;SDS011;6708;49.814;8.652;2024-02-21T13:56:10;3.47;;;2.23;;
13279;SDS011;6708;49.814;8.652;2024-02-21T13:58:38;4.33;;;2.27;;
13279;SDS011;6708;49.814;8.652;2024-02-21T14:01:07;1.60;;;1.50;;
13279;SDS011;6708;49.814;8.652;2024-02-21T14:03:35;7.80;;;2.30;;
13279;SDS011;6708;49.814;8.652;2024-02-21T14:06:04;8.23;;;2.40;;
13279;SDS011;6708;49.814;8.652;2024-02-21T14:08:35;9.77;;;2.30;;
13279;SDS011;6708;49.814;8.652;2024-02-21T14:11:05;5.40;;;2.10;;
13279;SDS011;6708;49.814;8.652;2024-02-21T14:13:33;2.50;;;1.90;;
13279;SDS011;6708;49.814;8.652;2024-02-21T14:16:02;4.80;;;2.40;;
13279;SDS011;6708;49.814;8.652;2024-02-21T14:18:30;5.97;;;2.10;;
13279;SDS011;6708;49.814;8.652;2024-02-21T14:20:59;6.83;;;2.07;;
13279;SDS011;6708;49.814;8.652;2024-02-21T14:23:27;5.00;;;2.27;;
13279;SDS011;6708;49.814;8.652;2024-02-21T14:25:58;9.23;;;2.37;;
13279;SDS011;6708;49.814;8.652;2024-02-21T14:28:28;3.30;;;1.90;;
13279;SDS011;6708;49.814;8.652;2024-02-21T14:30:57;5.43;;;2.37;;
13279;SDS011;6708;49.814;8.652;2024-02-21T14:33:25;5.90;;;2.43;;
13279;SDS011;6708;49.814;8.652;2024-02-21T14:35:54;4.50;;;1.93;;
13279;SDS011;6708;49.814;8.652;2024-02-21T14:38:23;2.67;;;1.77;;
13279;SDS011;6708;49.814;8.652;2024-02-21T14:40:52;3.37;;;1.73;;
13279;SDS011;6708;49.814;8.652;2024-02-21T14:43:23;2.97;;;1.43;;
13279;SDS011;6708;49.814;8.652;2024-02-21T14:45:51;2.37;;;1.47;;
13279;SDS011;6708;49.814;8.652;2024-02-21T14:48:20;3.83;;;1.73;;
13279;SDS011;6708;49.814;8.652;2024-02-21T14:50:48;2.93;;;1.80;;
13279;SDS011;6708;49.814;8.652;2024-02-21T14:53:17;7.83;;;2.13;;
13279;SDS011;6708;49.814;8.652;2024-02-21T14:55:46;4.63;;;2.00;;
13279;SDS011;6708;49.814;8.652;2024-02-21T14:58:18;4.07;;;2.43;;
13279;SDS011;6708;49.814;8.652;2024-02-21T15:00:50;4.57;;;2.07;;
13279;SDS011;6708;49.814;8.652;2024-02-21T15:03:19;3.90;;;2.00;;
13279;SDS011;6708;49.814;8.652;2024-02-21T15:05:47;4.10;;;2.30;;
13279;SDS011;6708;49.814;8.652;2024-02-21T15:08:16;2.67;;;1.60;;
13279;SDS011;6708;49.814;8.652;2024-02-21T15:10:45;3.90;;;1.87;;
13279;SDS011;6708;49.814;8.652;2024-02-21T15:13:15;3.70;;;1.70;;
13279;SDS011;6708;49.814;8.652;2024-02-21T15:15:43;4.03;;;1.70;;
13279;SDS011;6708;49.814;8.652;2024-02-21T15:18:15;2.17;;;1.43;;